Time;durP1;ratioP1;P1;durP2;ratioP2;P2;SDS_P1;SDS_P2;PMS_P1;PMS_P2;Temp;Humidity;BMP_temperature;BMP_pressure;BME280_temperature;BME280_humidity;BME280_pressure;Samples;Min_cycle;Max_cycle;Signal;HPM_P1;HPM_P2
2023/01/19 00:00:00;;;;;;;25.63;14.00;;;4.70;99.90;;;;;;5074732;28;20035;-35
2023/01/19 00:02:26;;;;;;;35.35;16.65;;;4.60;99.90;;;;;;5074431;28;20028;-34
2023/01/19 00:04:52;;;;;;;34.03;15.90;;;5.20;99.90;;;;;;5074366;28;20024;-34
2023/01/19 00:07:17;;;;;;;28.52;13.18;;;6.40;99.90;;;;;;5074132;28;20401;-35
2023/01/19 00:09:43;;;;;;;28.50;13.98;;;7.40;99.90;;;;;;5074447;28;20025;-34
2023/01/19 00:12:08;;;;;;;29.70;14.93;;;7.70;99.90;;;;;;5074336;28;20462;-34
2023/01/19 00:14:34;;;;;;;26.38;14.02;;;7.30;99.90;;;;;;5074261;28;20104;-34
2023/01/19 00:17:00;;;;;;;26.15;14.98;;;6.80;99.90;;;;;;5075944;28;20036;-34
2023/01/19 00:19:27;;;;;;;27.65;14.50;;;6.40;99.90;;;;;;5074656;28;20028;-34
2023/01/19 00:21:52;;;;;;;25.40;12.88;;;6.10;99.90;;;;;;5074195;28;20024;-34
2023/01/19 00:24:18;;;;;;;20.77;12.10;;;5.80;99.90;;;;;;5074223;28;20024;-35
2023/01/19 00:26:43;;;;;;;26.35;12.60;;;5.60;99.90;;;;;;5073981;28;20099;-35
2023/01/19 00:29:11;;;;;;;21.95;12.30;;;5.50;99.90;;;;;;5074158;28;20103;-35
2023/01/19 00:31:36;;;;;;;19.30;11.02;;;5.30;99.90;;;;;;5074849;28;20035;-34
2023/01/19 00:34:03;;;;;;;19.48;11.25;;;5.20;99.90;;;;;;5075707;28;20111;-35
2023/01/19 00:36:28;;;;;;;19.40;9.82;;;5.10;99.90;;;;;;5075758;28;20053;-34
2023/01/19 00:38:54;;;;;;;16.75;9.77;;;5.00;99.90;;;;;;5073821;28;20060;-34
2023/01/19 00:42:38;;;;;;;17.38;9.45;;;4.90;99.90;;;;;;5073932;28;20028;-34
2023/01/19 00:44:05;;;;;;;18.67;10.30;;;4.80;99.90;;;;;;5073530;28;20029;-34
2023/01/19 00:46:31;;;;;;;15.90;9.73;;;4.70;99.90;;;;;;5073704;28;20020;-35
2023/01/19 00:48:56;;;;;;;19.83;9.75;;;4.70;99.90;;;;;;5073693;28;20031;-35
2023/01/19 00:51:22;;;;;;;20.52;11.13;;;4.60;99.90;;;;;;5073653;28;20069;-35
2023/01/19 00:53:47;;;;;;;22.05;9.93;;;4.60;99.90;;;;;;5074499;28;20430;-35
2023/01/19 00:56:13;;;;;;;17.65;10.38;;;4.60;99.90;;;;;;5072766;28;20052;-35
2023/01/19 00:58:38;;;;;;;24.33;10.82;;;4.50;99.90;;;;;;5073278;28;20064;-35
2023/01/19 01:01:04;;;;;;;17.40;9.82;;;4.50;99.90;;;;;;5073275;28;20539;-34
2023/01/19 01:03:31;;;;;;;19.63;10.43;;;4.60;99.90;;;;;;5074616;28;20029;-34
2023/01/19 01:05:56;;;;;;;16.75;9.48;;;5.60;99.90;;;;;;5073518;28;20394;-34
2023/01/19 01:08:22;;;;;;;17.00;9.02;;;6.70;99.90;;;;;;5073174;28;20024;-34
2023/01/19 01:10:48;;;;;;;16.65;8.55;;;7.60;99.90;;;;;;5074010;28;20020;-34
2023/01/19 01:13:13;;;;;;;15.48;9.00;;;7.50;99.90;;;;;;5075252;28;20079;-35
2023/01/19 01:15:39;;;;;;;13.32;7.82;;;6.90;99.90;;;;;;5073403;28;20539;-34
2023/01/19 01:18:04;;;;;;;15.73;8.18;;;6.50;99.90;;;;;;5073045;28;20031;-33
2023/01/19 01:20:32;;;;;;;15.48;8.68;;;6.10;99.90;;;;;;5073604;28;20355;-34
2023/01/19 01:22:58;;;;;;;13.38;7.80;;;5.80;99.90;;;;;;5072064;28;20039;-34
2023/01/19 01:25:25;;;;;;;15.38;8.95;;;5.60;99.90;;;;;;5073586;28;20024;-34
2023/01/19 01:27:52;;;;;;;14.70;7.80;;;5.40;99.90;;;;;;5072840;28;20103;-35
2023/01/19 01:30:18;;;;;;;12.73;7.78;;;5.20;99.90;;;;;;5073057;28;20052;-35
2023/01/19 01:32:44;;;;;;;14.82;7.55;;;5.10;99.90;;;;;;5072920;28;20107;-35
2023/01/19 01:35:10;;;;;;;18.00;9.00;;;4.90;99.90;;;;;;5073906;28;20135;-34
2023/01/19 01:37:37;;;;;;;19.45;9.25;;;4.80;99.90;;;;;;5073271;28;20108;-35
2023/01/19 01:40:05;;;;;;;16.70;9.02;;;4.80;99.90;;;;;;5072656;28;20024;-34
2023/01/19 01:42:31;;;;;;;14.40;8.30;;;4.70;99.90;;;;;;5072574;28;20406;-34
2023/01/19 01:45:05;;;;;;;23.92;10.07;;;4.70;99.90;;;;;;5072796;28;20024;-35
2023/01/19 01:47:36;;;;;;;19.13;9.10;;;4.60;99.90;;;;;;5073086;28;20429;-34
2023/01/19 01:50:32;;;;;;;14.48;7.68;;;4.60;99.90;;;;;;5072412;28;20122;-34
2023/01/19 01:53:04;;;;;;;15.55;8.02;;;4.50;99.90;;;;;;5072581;28;20032;-34
2023/01/19 01:55:34;;;;;;;14.30;7.80;;;4.40;99.90;;;;;;5072723;28;20059;-34
2023/01/19 01:58:03;;;;;;;15.90;8.27;;;4.40;99.90;;;;;;5071965;28;20036;-33
2023/01/19 02:02:49;;;;;;;19.65;9.05;;;4.40;99.90;;;;;;5072076;28;20437;-34
2023/01/19 02:03:21;;;;;;;22.65;9.35;;;4.40;99.90;;;;;;5072074;28;20398;-35
2023/01/19 02:05:46;;;;;;;14.40;7.95;;;5.30;99.90;;;;;;5072594;28;20675;-34
2023/01/19 02:13:49;;;;;;;16.23;9.05;;;7.30;99.90;;;;;;5072115;28;20050;-34
2023/01/19 02:16:15;;;;;;;27.40;10.15;;;6.70;99.90;;;;;;5072208;28;20450;-34
2023/01/19 02:18:44;;;;;;;18.40;8.88;;;6.30;99.90;;;;;;5071742;28;20093;-35
2023/01/19 02:21:12;;;;;;;18.98;9.27;;;5.90;99.90;;;;;;5071867;28;20028;-33
2023/01/19 02:23:40;;;;;;;18.70;8.95;;;5.60;99.90;;;;;;5072095;28;20032;-35
2023/01/19 02:26:08;;;;;;;18.08;8.25;;;5.40;99.90;;;;;;5073507;28;20429;-35
2023/01/19 02:28:35;;;;;;;15.75;7.70;;;;;;;;;;5071738;28;20394;-34
2023/01/19 02:31:01;;;;;;;14.85;8.02;;;4.90;99.90;;;;;;5072281;28;20029;-33
2023/01/19 02:33:28;;;;;;;16.40;7.40;;;4.80;99.90;;;;;;5071602;28;20398;-34
2023/01/19 02:35:55;;;;;;;16.13;7.60;;;4.80;99.90;;;;;;5071464;28;20394;-34
2023/01/19 02:38:24;;;;;;;27.98;10.75;;;4.70;99.90;;;;;;5071500;28;20058;-34
2023/01/19 02:40:50;;;;;;;16.58;7.68;;;4.60;99.90;;;;;;5071588;28;20021;-35
2023/01/19 02:43:18;;;;;;;23.85;9.88;;;4.50;99.90;;;;;;5072363;28;20051;-34
2023/01/19 02:45:44;;;;;;;30.90;10.95;;;4.50;99.90;;;;;;5071303;28;20024;-35
2023/01/19 02:48:10;;;;;;;40.55;14.25;;;4.40;99.90;;;;;;5071364;28;20393;-35
2023/01/19 02:50:44;;;;;;;31.92;12.35;;;4.40;99.90;;;;;;5071514;28;20032;-35
2023/01/19 02:53:47;;;;;;;32.67;11.93;;;4.40;99.90;;;;;;5071560;28;20119;-35
2023/01/19 02:56:35;;;;;;;32.45;11.40;;;4.30;99.90;;;;;;5071016;28;20077;-34
2023/01/19 02:59:24;;;;;;;33.38;10.75;;;4.30;99.90;;;;;;5071781;28;20505;-34
2023/01/19 03:02:04;;;;;;;24.70;9.98;;;4.30;99.90;;;;;;5071576;28;20028;-34
2023/01/19 03:05:05;;;;;;;24.08;10.18;;;4.60;99.90;;;;;;5071124;28;20440;-34
2023/01/19 03:07:41;;;;;;;21.98;9.15;;;6.00;99.90;;;;;;5070885;28;20036;-35
2023/01/19 03:10:19;;;;;;;25.65;10.10;;;7.10;99.90;;;;;;5071184;28;20493;-35
2023/01/19 03:13:29;;;;;;;19.63;9.65;;;7.40;99.90;;;;;;5071706;28;20486;-34
2023/01/19 03:16:04;;;;;;;17.67;7.82;;;6.80;99.90;;;;;;5069787;28;20520;-33
2023/01/19 03:18:33;;;;;;;18.98;8.52;;;6.20;99.90;;;;;;5070647;28;20549;-35
2023/01/19 03:21:02;;;;;;;18.65;8.40;;;5.90;99.90;;;;;;5071064;28;20025;-34
2023/01/19 03:23:30;;;;;;;19.13;9.13;;;5.50;99.90;;;;;;5071118;28;20024;-34
2023/01/19 03:25:58;;;;;;;20.55;9.15;;;5.30;99.90;;;;;;5071393;28;20029;-34
2023/01/19 03:28:27;;;;;;;15.45;7.78;;;5.10;99.90;;;;;;5072309;28;20125;-35
2023/01/19 03:30:58;;;;;;;16.90;8.00;;;5.40;99.90;;;;;;5071113;28;20028;-35
2023/01/19 03:33:36;;;;;;;15.52;7.50;;;6.40;99.90;;;;;;5071315;28;20028;-35
2023/01/19 03:36:07;;;;;;;11.18;6.72;;;6.50;99.90;;;;;;5070828;28;20025;-34
2023/01/19 03:38:36;;;;;;;12.68;6.68;;;6.20;99.90;;;;;;5070969;28;20470;-34
2023/01/19 03:41:07;;;;;;;13.15;7.30;;;5.80;99.90;;;;;;5071307;28;20482;-34
2023/01/19 03:43:34;;;;;;;14.90;7.75;;;5.50;99.90;;;;;;5070915;28;20032;-34
2023/01/19 03:46:04;;;;;;;14.57;7.45;;;5.20;99.90;;;;;;5071058;28;20048;-34
2023/01/19 03:48:31;;;;;;;15.27;7.05;;;5.10;99.90;;;;;;5069948;28;20043;-34
2023/01/19 03:50:57;;;;;;;14.15;7.40;;;5.60;99.90;;;;;;5070868;28;20023;-34
2023/01/19 03:53:22;;;;;;;13.10;6.63;;;6.50;99.90;;;;;;5072028;28;20025;-34
2023/01/19 03:55:50;;;;;;;10.18;6.05;;;6.40;99.90;;;;;;5070663;28;20102;-34
2023/01/19 03:58:18;;;;;;;15.05;6.60;;;6.10;99.90;;;;;;5072479;28;20039;-34
2023/01/19 04:00:44;;;;;;;12.07;6.75;;;5.70;99.90;;;;;;5071011;28;20031;-34
2023/01/19 04:03:13;;;;;;;11.00;6.57;;;5.40;99.90;;;;;;5070743;28;20024;-34
2023/01/19 04:05:39;;;;;;;14.40;6.47;;;5.20;99.90;;;;;;5070679;28;20031;-35
2023/01/19 04:08:05;;;;;;;19.55;7.65;;;5.10;99.90;;;;;;5070523;28;20095;-34
2023/01/19 04:10:30;;;;;;;12.57;6.72;;;5.90;99.90;;;;;;5071242;28;20033;-35
2023/01/19 04:12:57;;;;;;;10.95;6.65;;;6.60;99.90;;;;;;5070661;28;20021;-34
2023/01/19 04:15:23;;;;;;;12.30;6.75;;;6.40;99.90;;;;;;5070578;28;20483;-34
2023/01/19 04:17:49;;;;;;;14.02;6.50;;;6.10;99.90;;;;;;5070373;28;20039;-34
2023/01/19 04:20:16;;;;;;;13.18;6.43;;;;;;;;;;5070593;28;20509;-35
2023/01/19 04:22:41;;;;;;;11.98;6.47;;;5.50;99.90;;;;;;5070604;28;20029;-34
2023/01/19 04:25:08;;;;;;;14.65;6.63;;;5.30;99.90;;;;;;5070497;28;20383;-34
2023/01/19 04:27:34;;;;;;;10.98;6.20;;;5.20;99.90;;;;;;5070385;28;20020;-34
2023/01/19 04:30:00;;;;;;;11.55;6.40;;;6.00;99.90;;;;;;5073456;28;20078;-34
2023/01/19 04:32:26;;;;;;;12.65;5.82;;;6.70;99.90;;;;;;5074383;28;20021;-34
2023/01/19 04:34:51;;;;;;;13.50;6.45;;;6.50;99.90;;;;;;5075211;28;20046;-34
2023/01/19 04:37:17;;;;;;;10.23;5.85;;;6.10;99.90;;;;;;5074001;28;20108;-34
2023/01/19 04:39:42;;;;;;;16.45;6.53;;;5.80;99.90;;;;;;5074115;28;20051;-34
2023/01/19 04:42:08;;;;;;;12.38;6.45;;;5.50;99.90;;;;;;5073860;28;20036;-35
2023/01/19 04:44:34;;;;;;;10.80;6.35;;;5.30;99.90;;;;;;5073730;28;20024;-35
2023/01/19 04:47:00;;;;;;;12.82;7.05;;;5.20;99.90;;;;;;5073510;28;20048;-34
2023/01/19 04:49:26;;;;;;;11.73;6.32;;;6.00;99.90;;;;;;5073768;28;20578;-35
2023/01/19 04:51:52;;;;;;;11.63;5.80;;;6.70;99.90;;;;;;5073613;28;20099;-34
2023/01/19 04:54:18;;;;;;;11.45;5.90;;;6.50;99.90;;;;;;5073885;28;20033;-34
2023/01/19 04:56:44;;;;;;;10.65;6.15;;;6.10;99.90;;;;;;5073214;28;20490;-35
2023/01/19 04:59:10;;;;;;;13.38;6.70;;;5.70;99.90;;;;;;5073509;28;20039;-34
2023/01/19 05:01:35;;;;;;;10.85;6.35;;;5.50;99.90;;;;;;5073286;28;20116;-33
2023/01/19 05:04:03;;;;;;;13.50;5.68;;;5.20;99.90;;;;;;5074325;28;20036;-34
2023/01/19 05:06:29;;;;;;;11.55;6.75;;;5.10;99.90;;;;;;5073222;28;20025;-34
2023/01/19 05:08:55;;;;;;;10.50;6.15;;;6.00;99.90;;;;;;5073539;28;20459;-35
2023/01/19 05:11:20;;;;;;;14.57;6.03;;;6.60;99.90;;;;;;5073332;28;20436;-34
2023/01/19 05:13:46;;;;;;;13.65;6.30;;;6.40;99.90;;;;;;5073294;28;20439;-34
2023/01/19 05:16:12;;;;;;;11.70;5.70;;;6.00;99.90;;;;;;5073004;28;20060;-34
2023/01/19 05:18:38;;;;;;;11.23;6.72;;;5.60;99.90;;;;;;5073053;28;20024;-34
2023/01/19 05:21:05;;;;;;;10.60;6.82;;;5.40;99.90;;;;;;5073160;28;20364;-34
2023/01/19 05:23:31;;;;;;;12.15;5.78;;;5.20;99.90;;;;;;5073122;28;20029;-34
2023/01/19 05:26:01;;;;;;;13.65;6.57;;;5.20;99.90;;;;;;5072893;28;20020;-35
2023/01/19 05:28:28;;;;;;;11.23;6.22;;;6.10;99.90;;;;;;5072986;28;20056;-33
2023/01/19 05:30:54;;;;;;;10.52;5.75;;;6.50;99.90;;;;;;5073321;28;20107;-35
2023/01/19 05:33:20;;;;;;;12.02;6.03;;;6.30;99.90;;;;;;5072843;28;20025;-33
2023/01/19 05:35:49;;;;;;;11.30;5.85;;;5.90;99.90;;;;;;5072747;28;20108;-34
2023/01/19 05:38:15;;;;;;;10.15;5.88;;;5.60;99.90;;;;;;5072727;28;20417;-34
2023/01/19 05:40:41;;;;;;;13.98;5.65;;;5.30;99.90;;;;;;5072494;28;20094;-34
2023/01/19 05:43:06;;;;;;;13.27;6.55;;;5.10;99.90;;;;;;5073155;28;20082;-34
2023/01/19 05:45:33;;;;;;;9.70;5.45;;;5.30;99.90;;;;;;5074376;28;20063;-34
2023/01/19 05:47:58;;;;;;;13.70;7.80;;;6.30;99.90;;;;;;5072603;28;20031;-35
2023/01/19 05:50:24;;;;;;;18.13;8.77;;;6.60;99.90;;;;;;5073168;28;20029;-33
2023/01/19 05:52:52;;;;;;;20.52;10.05;;;6.20;99.90;;;;;;5072508;28;20024;-34
2023/01/19 05:55:18;;;;;;;27.95;14.13;;;5.80;99.90;;;;;;5072411;28;20112;-34
2023/01/19 05:57:44;;;;;;;40.05;18.35;;;5.50;99.90;;;;;;5072388;28;20413;-33
2023/01/19 06:00:10;;;;;;;51.33;21.02;;;5.30;99.90;;;;;;5072197;28;20028;-35
2023/01/19 06:02:36;;;;;;;63.85;25.08;;;5.10;99.90;;;;;;5072265;28;20090;-34
2023/01/19 06:05:01;;;;;;;51.45;22.10;;;5.40;99.90;;;;;;5072189;28;20025;-34
2023/01/19 06:07:27;;;;;;;45.90;20.08;;;6.30;99.90;;;;;;5072013;28;20032;-33
2023/01/19 06:09:53;;;;;;;46.85;20.40;;;6.40;99.90;;;;;;5072142;28;20146;-33
2023/01/19 06:12:18;;;;;;;36.20;17.38;;;6.10;99.90;;;;;;5072182;28;20428;-33
2023/01/19 06:14:44;;;;;;;32.50;15.82;;;5.70;99.90;;;;;;5072009;28;20029;-34
2023/01/19 06:17:09;;;;;;;31.15;14.68;;;5.40;99.90;;;;;;5071806;28;20029;-35
2023/01/19 06:19:35;;;;;;;26.67;13.60;;;5.20;99.90;;;;;;5072000;28;20433;-34
2023/01/19 06:22:01;;;;;;;27.60;13.38;;;5.00;99.90;;;;;;5072064;28;20032;-33
2023/01/19 06:24:28;;;;;;;28.80;12.63;;;5.50;99.90;;;;;;5072170;28;20032;-33
2023/01/19 06:26:54;;;;;;;31.40;15.38;;;6.50;99.90;;;;;;5071700;28;20021;-34
2023/01/19 06:29:20;;;;;;;34.33;18.40;;;6.30;99.90;;;;;;5071886;28;20482;-34
2023/01/19 06:31:46;;;;;;;31.13;16.48;;;6.00;99.90;;;;;;5071831;28;20078;-35
2023/01/19 06:34:12;;;;;;;32.53;17.88;;;5.60;99.90;;;;;;5071950;28;20032;-34
2023/01/19 06:36:38;;;;;;;35.60;16.67;;;5.40;99.90;;;;;;5071873;28;20403;-34
2023/01/19 06:39:04;;;;;;;30.30;16.15;;;5.10;99.90;;;;;;5072025;28;20410;-35
2023/01/19 06:41:34;;;;;;;24.95;13.98;;;5.00;99.90;;;;;;5071663;28;20020;-33
2023/01/19 06:44:00;;;;;;;25.13;13.57;;;5.80;99.90;;;;;;5071415;28;20116;-35
2023/01/19 06:46:26;;;;;;;30.30;13.90;;;6.50;99.90;;;;;;5071497;28;20043;-34
2023/01/19 06:48:53;;;;;;;25.98;13.60;;;6.30;99.90;;;;;;5071509;28;20501;-34
2023/01/19 06:51:19;;;;;;;30.27;14.93;;;5.90;99.90;;;;;;5071863;28;20420;-33
2023/01/19 06:53:44;;;;;;;31.65;14.75;;;5.60;99.90;;;;;;5071091;28;20077;-34
2023/01/19 06:56:10;;;;;;;27.52;13.82;;;5.30;99.90;;;;;;5071270;28;20028;-33
2023/01/19 06:58:36;;;;;;;27.58;13.15;;;5.10;99.90;;;;;;5071122;28;20090;-34
2023/01/19 07:01:04;;;;;;;20.73;10.38;;;5.10;99.90;;;;;;5071335;28;20387;-34
2023/01/19 07:03:30;;;;;;;30.23;15.63;;;6.00;99.90;;;;;;5072122;28;20474;-33
2023/01/19 07:05:56;;;;;;;26.02;13.63;;;6.50;99.90;;;;;;5071070;28;20043;-34
2023/01/19 07:08:22;;;;;;;28.67;14.82;;;6.30;99.90;;;;;;5071090;28;20020;-34
2023/01/19 07:10:47;;;;;;;41.83;19.30;;;5.90;99.90;;;;;;5071296;28;20028;-35
2023/01/19 07:13:13;;;;;;;56.22;25.75;;;5.60;99.90;;;;;;5071241;28;20032;-35
2023/01/19 07:15:39;;;;;;;38.47;17.17;;;5.30;99.90;;;;;;5071220;28;20028;-34
2023/01/19 07:18:06;;;;;;;39.88;20.27;;;5.10;99.90;;;;;;5071170;28;20031;-35
2023/01/19 07:20:33;;;;;;;46.05;20.83;;;4.90;99.90;;;;;;5071273;28;20032;-34
2023/01/19 07:22:59;;;;;;;33.53;16.73;;;4.80;99.90;;;;;;5071156;28;20102;-33
2023/01/19 07:25:25;;;;;;;28.95;14.50;;;4.70;99.90;;;;;;5071019;28;20056;-34
2023/01/19 07:27:55;;;;;;;29.85;14.68;;;4.60;99.90;;;;;;5071034;28;20024;-35
2023/01/19 07:30:20;;;;;;;28.05;13.50;;;4.50;99.90;;;;;;5071682;28;20020;-34
2023/01/19 07:32:46;;;;;;;26.15;13.55;;;4.40;99.90;;;;;;5071059;28;20074;-34
2023/01/19 07:35:11;;;;;;;27.13;13.02;;;4.40;99.90;;;;;;5070950;28;20108;-34
2023/01/19 07:37:37;;;;;;;23.13;12.10;;;4.30;99.90;;;;;;5070805;28;20020;-34
2023/01/19 07:40:03;;;;;;;27.17;13.35;;;4.30;99.90;;;;;;5070915;28;20452;-33
2023/01/19 07:42:29;;;;;;;25.80;13.45;;;4.20;99.90;;;;;;5071064;28;20031;-33
2023/01/19 07:44:54;;;;;;;39.00;19.92;;;4.90;99.90;;;;;;5071301;28;20413;-33
2023/01/19 07:47:20;;;;;;;29.17;14.23;;;6.10;99.90;;;;;;5070705;28;20450;-34
2023/01/19 07:49:45;;;;;;;26.52;11.88;;;7.00;99.90;;;;;;5070776;28;20025;-34
2023/01/19 07:52:11;;;;;;;23.55;11.48;;;7.30;99.90;;;;;;5070880;28;20107;-34
2023/01/19 07:54:37;;;;;;;26.15;12.32;;;6.90;99.90;;;;;;5070877;28;20020;-34
2023/01/19 07:57:03;;;;;;;22.73;11.80;;;6.40;99.90;;;;;;5070759;28;20471;-34
2023/01/19 07:59:29;;;;;;;23.17;11.93;;;6.00;99.90;;;;;;5070705;28;20060;-35
2023/01/19 08:01:57;;;;;;;19.63;10.88;;;5.80;99.90;;;;;;5070478;28;20021;-35
2023/01/19 08:04:24;;;;;;;21.92;11.20;;;5.50;99.90;;;;;;5073153;28;20028;-34
2023/01/19 08:06:50;;;;;;;21.98;12.10;;;5.40;99.90;;;;;;5074541;28;20044;-34
2023/01/19 08:09:16;;;;;;;17.05;10.60;;;5.20;99.90;;;;;;5074577;28;20127;-34
2023/01/19 08:11:42;;;;;;;20.20;10.68;;;5.10;99.90;;;;;;5074634;28;20035;-34
2023/01/19 08:14:08;;;;;;;17.20;10.13;;;5.00;99.90;;;;;;5074647;28;20028;-33
2023/01/19 08:16:34;;;;;;;20.40;9.93;;;4.90;99.90;;;;;;5075424;28;20029;-35
2023/01/19 08:19:00;;;;;;;17.83;10.43;;;4.80;99.90;;;;;;5074523;28;20059;-35
2023/01/19 08:21:26;;;;;;;17.63;10.18;;;4.80;99.90;;;;;;5074351;28;20064;-34
2023/01/19 08:23:56;;;;;;;17.77;10.27;;;4.70;99.90;;;;;;5075058;28;20393;-34
2023/01/19 08:26:30;;;;;;;17.58;10.80;;;4.70;99.90;;;;;;5074035;28;20481;-35
2023/01/19 08:28:58;;;;;;;20.33;10.95;;;4.70;99.90;;;;;;5074047;28;20020;-34
2023/01/19 08:31:24;;;;;;;15.80;9.63;;;4.60;99.90;;;;;;5074155;28;20040;-33
2023/01/19 08:33:50;;;;;;;16.50;10.20;;;4.60;99.90;;;;;;5074034;28;20024;-34
2023/01/19 08:36:16;;;;;;;18.10;10.50;;;4.60;99.90;;;;;;5074104;28;20429;-34
2023/01/19 08:38:44;;;;;;;20.58;10.15;;;4.60;99.90;;;;;;5074049;28;20043;-34
2023/01/19 08:41:10;;;;;;;17.10;9.05;;;5.30;99.90;;;;;;5073938;28;20025;-33
2023/01/19 08:43:39;;;;;;;13.25;8.85;;;6.60;99.90;;;;;;5073864;28;20025;-35
2023/01/19 08:46:05;;;;;;;13.38;7.78;;;7.60;99.90;;;;;;5073765;28;20035;-34
2023/01/19 08:48:31;;;;;;;13.95;8.70;;;7.50;99.90;;;;;;5073888;28;20016;-34
2023/01/19 08:50:58;;;;;;;14.55;8.45;;;7.10;99.90;;;;;;5073814;28;20025;-35
2023/01/19 08:53:24;;;;;;;11.52;8.35;;;6.80;99.90;;;;;;5074527;28;20103;-34
2023/01/19 08:55:56;;;;;;;13.43;8.10;;;6.50;99.90;;;;;;5073416;28;20056;-34
2023/01/19 08:58:22;;;;;;;11.68;7.75;;;6.40;99.90;;;;;;5073376;28;20032;-34
2023/01/19 09:00:51;;;;;;;11.23;7.22;;;6.20;99.90;;;;;;5073580;28;20025;-34
2023/01/19 09:03:17;;;;;;;11.15;6.65;;;6.00;99.90;;;;;;5073576;28;20107;-33
2023/01/19 09:05:43;;;;;;;12.45;6.82;;;5.90;99.90;;;;;;5073344;28;20078;-34
2023/01/19 09:08:11;;;;;;;11.13;6.85;;;5.80;99.90;;;;;;5073602;28;20020;-34
2023/01/19 09:10:38;;;;;;;11.38;7.10;;;5.90;99.90;;;;;;5073881;28;20013;-33
2023/01/19 09:13:07;;;;;;;11.02;7.00;;;6.80;99.90;;;;;;5073774;28;20055;-34
2023/01/19 09:15:34;;;;;;;12.55;6.90;;;7.20;99.90;;;;;;5072864;28;20484;-34
2023/01/19 09:18:01;;;;;;;12.18;6.80;;;7.00;99.90;;;;;;5073234;28;20025;-34
2023/01/19 09:20:29;;;;;;;10.65;6.18;;;6.80;99.90;;;;;;5074097;28;20032;-33
2023/01/19 09:22:58;;;;;;;10.40;5.72;;;6.60;99.90;;;;;;5073292;28;20142;-35
2023/01/19 09:25:24;;;;;;;9.38;5.60;;;6.50;99.90;;;;;;5072913;28;20394;-34
2023/01/19 09:27:50;;;;;;;9.05;6.28;;;6.40;99.90;;;;;;5073009;28;20021;-34
2023/01/19 09:30:17;;;;;;;9.23;5.63;;;6.30;99.90;;;;;;5073190;28;20039;-35
2023/01/19 09:32:44;;;;;;;10.77;5.85;;;6.20;99.90;;;;;;5072993;28;20100;-35
2023/01/19 09:35:10;;;;;;;9.52;5.72;;;6.10;99.90;;;;;;5073244;28;20032;-34
2023/01/19 09:37:36;;;;;;;10.27;5.85;;;7.00;99.90;;;;;;5072597;28;20825;-35
2023/01/19 09:40:05;;;;;;;8.65;5.20;;;7.60;99.90;;;;;;5073167;28;20047;-34
2023/01/19 09:43:03;;;;;;;8.20;5.45;;;7.40;99.90;;;;;;5072688;28;20386;-33
2023/01/19 09:45:44;;;;;;;11.00;5.57;;;7.10;99.90;;;;;;5071209;28;20123;-34
2023/01/19 09:48:44;;;;;;;10.93;4.85;;;6.80;99.90;;;;;;5073250;28;20017;-34
2023/01/19 09:51:21;;;;;;;8.13;4.95;;;6.60;99.90;;;;;;5072767;28;20048;-33
2023/01/19 09:53:50;;;;;;;8.60;5.03;;;6.40;99.90;;;;;;5073032;28;20037;-34
2023/01/19 09:56:18;;;;;;;8.60;4.97;;;6.20;99.90;;;;;;5072187;28;20063;-35
2023/01/19 09:58:45;;;;;;;8.75;5.40;;;;;;;;;;5072117;28;20033;-34
2023/01/19 10:01:36;;;;;;;8.43;5.13;;;7.30;99.90;;;;;;5072389;28;20029;-33
2023/01/19 10:04:26;;;;;;;10.32;5.03;;;7.40;99.90;;;;;;5072411;28;20103;-35
2023/01/19 10:07:08;;;;;;;8.75;5.05;;;7.40;99.90;;;;;;5070933;28;20035;-34
2023/01/19 10:10:01;;;;;;;8.30;4.72;;;7.10;99.90;;;;;;5072208;28;20112;-34
2023/01/19 10:12:49;;;;;;;8.02;4.28;;;6.80;99.90;;;;;;5072156;28;20024;-35
2023/01/19 10:15:27;;;;;;;7.45;4.63;;;6.50;99.90;;;;;;5072152;28;20505;-33
2023/01/19 10:18:09;;;;;;;7.95;4.50;;;6.40;99.90;;;;;;5071833;28;20025;-34
2023/01/19 10:20:40;;;;;;;6.57;4.40;;;6.20;99.90;;;;;;5072056;28;20025;-34
2023/01/19 10:23:38;;;;;;;8.90;4.90;;;6.00;99.90;;;;;;5071935;28;20445;-34
2023/01/19 10:26:36;;;;;;;5.78;4.00;;;6.30;99.90;;;;;;5071741;28;20036;-34
2023/01/19 10:29:14;;;;;;;6.85;4.43;;;7.50;99.90;;;;;;5070635;28;20515;-34
2023/01/19 10:31:43;;;;;;;7.55;4.40;;;7.30;99.90;;;;;;5072258;28;20048;-34
2023/01/19 10:34:17;;;;;;;8.43;4.82;;;7.00;99.90;;;;;;5072350;28;20067;-35
2023/01/19 10:36:44;;;;;;;6.20;3.92;;;6.70;99.90;;;;;;5071739;28;20036;-34
2023/01/19 10:39:12;;;;;;;7.20;4.30;;;6.50;99.90;;;;;;5071633;28;20074;-35
2023/01/19 10:41:46;;;;;;;5.72;3.80;;;6.30;99.90;;;;;;5071532;28;20093;-34
2023/01/19 10:44:22;;;;;;;8.60;4.20;;;6.10;99.90;;;;;;5071669;28;20122;-34
2023/01/19 10:46:49;;;;;;;7.78;4.35;;;6.00;99.90;;;;;;5071479;28;20062;-34
2023/01/19 10:49:41;;;;;;;7.28;4.25;;;6.20;99.90;;;;;;5071577;28;20031;-34
2023/01/19 10:52:18;;;;;;;6.72;4.13;;;7.30;99.90;;;;;;5071390;28;20385;-34
2023/01/19 10:54:46;;;;;;;6.53;3.97;;;7.40;99.90;;;;;;5072256;28;20112;-34
2023/01/19 10:57:24;;;;;;;8.57;4.30;;;7.10;99.90;;;;;;5071440;28;20504;-33
2023/01/19 10:59:50;;;;;;;7.72;4.47;;;6.80;99.90;;;;;;5071107;28;20032;-34
2023/01/19 11:02:27;;;;;;;8.00;4.40;;;6.60;99.90;;;;;;5071426;28;20025;-35
2023/01/19 11:04:55;;;;;;;5.93;4.20;;;6.40;99.90;;;;;;5071369;28;20108;-34
2023/01/19 11:07:25;;;;;;;7.47;4.80;;;6.30;99.90;;;;;;5071048;28;20041;-35
2023/01/19 11:10:11;;;;;;;7.30;4.25;;;6.20;99.90;;;;;;5071306;28;20032;-35
2023/01/19 11:12:43;;;;;;;8.25;4.05;;;6.10;99.90;;;;;;5065990;28;20441;-34
2023/01/19 11:15:29;;;;;;;6.55;4.00;;;6.40;99.90;;;;;;5071238;28;20417;-34
2023/01/19 11:17:55;;;;;;;6.93;4.28;;;7.60;99.90;;;;;;5071011;28;20104;-34
2023/01/19 11:20:24;;;;;;;8.70;3.80;;;7.50;99.90;;;;;;5071940;28;20566;-35
2023/01/19 11:23:12;;;;;;;6.00;3.67;;;7.30;99.90;;;;;;5071087;28;20025;-34
2023/01/19 11:25:44;;;;;;;5.97;4.03;;;7.10;99.90;;;;;;5071598;28;20095;-35
2023/01/19 11:28:23;;;;;;;6.57;3.97;;;6.90;99.90;;;;;;5072200;28;20313;-34
2023/01/19 11:30:58;;;;;;;8.07;3.55;;;6.70;99.90;;;;;;5071158;28;20024;-34
2023/01/19 11:33:31;;;;;;;5.80;3.60;;;6.60;99.90;;;;;;5072126;28;20035;-35
2023/01/19 11:36:33;;;;;;;6.03;3.92;;;6.50;99.90;;;;;;5071055;28;20028;-34
2023/01/19 11:39:20;;;;;;;7.47;3.75;;;6.40;99.90;;;;;;5070932;28;20405;-34
2023/01/19 11:41:49;;;;;;;5.20;3.13;;;6.30;99.90;;;;;;5075079;28;20039;-34
2023/01/19 11:44:24;;;;;;;6.00;3.55;;;6.30;99.90;;;;;;5075205;28;20024;-35
2023/01/19 11:46:59;;;;;;;6.20;3.17;;;6.20;99.90;;;;;;5074733;28;20074;-34
2023/01/19 11:49:50;;;;;;;5.10;3.25;;;6.20;99.90;;;;;;5074977;28;20016;-34
2023/01/19 11:52:30;;;;;;;5.85;3.55;;;6.10;99.90;;;;;;5075012;28;20029;-34
2023/01/19 11:55:22;;;;;;;8.75;3.25;;;6.10;99.90;;;;;;5074946;28;20091;-35
2023/01/19 11:57:50;;;;;;;5.60;3.38;;;6.00;99.90;;;;;;5074164;28;20051;-35
2023/01/19 12:00:27;;;;;;;8.40;3.50;;;6.00;99.90;;;;;;5075501;28;20146;-34
2023/01/19 12:03:05;;;;;;;5.80;3.15;;;6.00;99.90;;;;;;5075308;28;20580;-35
2023/01/19 12:05:34;;;;;;;6.93;3.40;;;5.90;99.90;;;;;;5075420;28;20029;-35
2023/01/19 12:08:04;;;;;;;4.47;2.85;;;5.90;99.90;;;;;;5074323;28;20140;-35
2023/01/19 12:10:34;;;;;;;4.95;2.95;;;5.90;99.90;;;;;;5074590;28;20085;-33
2023/01/19 12:13:01;;;;;;;5.28;3.00;;;5.90;99.90;;;;;;5074959;28;20107;-35
2023/01/19 12:15:40;;;;;;;7.28;3.00;;;5.80;99.90;;;;;;5075047;28;20029;-35
2023/01/19 12:18:13;;;;;;;5.45;2.90;;;5.80;99.90;;;;;;5074683;28;20119;-34
2023/01/19 12:20:49;;;;;;;8.07;3.33;;;5.80;99.90;;;;;;5074587;28;20060;-34
2023/01/19 12:23:21;;;;;;;7.13;3.30;;;5.80;99.90;;;;;;5074971;28;20386;-34
2023/01/19 12:26:00;;;;;;;5.57;2.90;;;5.80;99.90;;;;;;5074195;28;20024;-35
2023/01/19 12:28:36;;;;;;;6.32;2.80;;;5.80;99.90;;;;;;5074145;28;20043;-34
2023/01/19 12:31:02;;;;;;;5.10;3.05;;;5.80;99.90;;;;;;5074180;28;20659;-34
2023/01/19 12:33:33;;;;;;;4.97;2.70;;;5.80;99.90;;;;;;5074005;28;20027;-35
2023/01/19 12:36:02;;;;;;;6.25;2.75;;;5.80;99.90;;;;;;5072506;28;20115;-34
2023/01/19 12:38:54;;;;;;;5.55;2.88;;;5.80;99.90;;;;;;5074019;28;20601;-33
2023/01/19 12:41:39;;;;;;;5.18;2.88;;;5.70;99.90;;;;;;5074045;28;20029;-34
2023/01/19 12:44:10;;;;;;;5.53;2.67;;;5.70;99.90;;;;;;5074193;28;20096;-35
2023/01/19 12:46:44;;;;;;;4.85;2.95;;;5.70;99.90;;;;;;5075066;28;20337;-35
2023/01/19 12:49:36;;;;;;;5.28;3.08;;;5.70;99.90;;;;;;5074375;28;20047;-34
2023/01/19 12:52:23;;;;;;;5.65;3.38;;;5.70;99.90;;;;;;5073302;28;20496;-34
2023/01/19 12:55:21;;;;;;;6.40;3.03;;;5.70;99.90;;;;;;5073907;28;20078;-34
2023/01/19 12:57:59;;;;;;;4.63;2.85;;;5.70;99.90;;;;;;5072539;28;20039;-34
2023/01/19 13:00:25;;;;;;;5.60;2.58;;;6.10;99.90;;;;;;5073459;28;20027;-34
2023/01/19 13:03:01;;;;;;;4.90;2.83;;;7.40;99.90;;;;;;5074922;28;20099;-34
2023/01/19 13:05:29;;;;;;;4.15;2.70;;;8.40;99.90;;;;;;5073407;28;20052;-34
2023/01/19 13:08:01;;;;;;;4.15;2.90;;;8.20;99.90;;;;;;5073262;28;20021;-33